^^
Saratoga-Weather Station Historical Data
Daily Summary for June 10, 2021 Units:  English    Metric   Both
Daily Weekly Monthly Yearly Custom
  High: Low: Average:
Temperature: 70.3 °F 60.8 °F 65.3 °F
Dew Point: 66 °F 59.7 °F 62.8 °F
Humidity: 97% 81% 92%
Wind Speed: 4.9mph 0mph 0.5mph
Wind Gust: 8mph - -
Wind- - SW
Pressure: 30 in 29.9 in -
Precipitation: 0.19 in    
Historical Graphs
 
 
Tabular Data for June 10, 2021
Time Temperature Dew Point Pressure Wind Wind Speed Wind Gust Humidity Rainfall Rate (Hourly) solar
00:04 64 °F 62.1 °F 29.9 in Calm     93% 0 in 0 W/m2
00:09 64 °F 62.1 °F 29.9 in Calm     93% 0 in 0 W/m2
00:14 64 °F 62.1 °F 29.9 in Calm     93% 0 in 0 W/m2
00:19 64 °F 62.2 °F 29.9 in Calm     94% 0 in 0 W/m2
00:24 63.9 °F 62.1 °F 29.9 in Calm     94% 0 in 0 W/m2
00:29 63.9 °F 62.1 °F 29.9 in Calm     94% 0 in 0 W/m2
00:34 63.9 °F 62.1 °F 29.9 in Calm   2 mph 94% 0 in 0 W/m2
00:39 64 °F 62.2 °F 29.9 in Calm     94% 0 in 0 W/m2
00:44 64 °F 62.2 °F 29.9 in NNW 0.9 mph 2 mph 94% 0 in 0 W/m2
00:49 64 °F 62.2 °F 29.9 in Calm   1 mph 94% 0 in 0 W/m2
00:54 64.2 °F 62.4 °F 29.9 in Calm   1 mph 94% 0 in 0 W/m2
00:59 64.2 °F 62.4 °F 29.9 in Calm     94% 0 in 0 W/m2
01:04 64.2 °F 62.4 °F 29.9 in WSW 0.9 mph 3 mph 94% 0 in 0 W/m2
01:09 64.6 °F 62.8 °F 29.9 in Calm   1 mph 94% 0 in 0 W/m2
01:15 64.8 °F 63 °F 29.9 in NNE 2 mph 3 mph 94% 0 in 0 W/m2
01:20 64.9 °F 62.8 °F 29.9 in SW 0.9 mph 2 mph 93% 0 in 0 W/m2
01:25 64.9 °F 62.6 °F 29.9 in Calm   3 mph 92% 0 in 0 W/m2
01:30 65.1 °F 62.8 °F 29.9 in Calm   1 mph 92% 0 in 0 W/m2
01:35 65.1 °F 62.8 °F 29.9 in SE 2 mph 2 mph 92% 0 in 0 W/m2
01:40 65.1 °F 62.8 °F 29.9 in ESE 0.9 mph 1 mph 92% 0 in 0 W/m2
01:45 64.9 °F 62.6 °F 29.9 in Calm   2 mph 92% 0 in 0 W/m2
01:50 64.9 °F 62.6 °F 29.9 in Calm   2 mph 92% 0 in 0 W/m2
01:55 64.9 °F 62.6 °F 29.9 in Calm     92% 0 in 0 W/m2
02:00 64.9 °F 62.6 °F 29.9 in Calm   2 mph 92% 0 in 0 W/m2
02:05 64.8 °F 62.4 °F 29.9 in Calm     92% 0 in 0 W/m2
02:10 64.6 °F 62.2 °F 29.9 in Calm     92% 0 in 0 W/m2
02:15 64.4 °F 62.4 °F 29.9 in East 2 mph 3 mph 93% 0 in 0 W/m2
02:20 64.2 °F 62.2 °F 29.9 in Calm   1 mph 93% 0 in 0 W/m2
02:25 64 °F 62.1 °F 29.9 in Calm   3 mph 93% 0 in 0 W/m2
02:30 64 °F 62.1 °F 29.9 in Calm   1 mph 93% 0 in 0 W/m2
02:35 63.9 °F 61.9 °F 29.9 in Calm     93% 0 in 0 W/m2
02:40 63.7 °F 61.7 °F 29.9 in Calm     93% 0 in 0 W/m2
02:45 63.5 °F 61.5 °F 29.9 in Calm     93% 0 in 0 W/m2
02:50 63.3 °F 61.3 °F 29.9 in Calm     93% 0 in 0 W/m2
02:55 63.3 °F 61.5 °F 29.9 in Calm     94% 0 in 0 W/m2
03:00 63.1 °F 61.2 °F 29.9 in Calm     93% 0 in 0 W/m2
03:05 63.1 °F 61.3 °F 29.9 in Calm     94% 0 in 0 W/m2
03:10 63.1 °F 61.3 °F 29.9 in Calm     94% 0 in 0 W/m2
03:15 63 °F 61.2 °F 29.9 in Calm     94% 0 in 0 W/m2
03:20 63 °F 61.2 °F 29.9 in Calm     94% 0 in 0 W/m2
03:25 63 °F 61.2 °F 29.9 in Calm     94% 0 in 0 W/m2
03:30 63 °F 61.2 °F 29.9 in Calm     94% 0 in 0 W/m2
03:35 63 °F 61.5 °F 29.9 in Calm     95% 0 in 0 W/m2
03:40 63 °F 61.5 °F 29.9 in Calm     95% 0 in 0 W/m2
03:45 63 °F 61.5 °F 29.9 in Calm     95% 0 in 0 W/m2
03:50 63 °F 61.5 °F 29.9 in Calm     95% 0 in 0 W/m2
03:55 63 °F 61.5 °F 29.9 in Calm     95% 0 in 0 W/m2
04:00 63 °F 61.5 °F 29.9 in Calm     95% 0 in 0 W/m2
04:05 62.8 °F 61.3 °F 29.9 in Calm     95% 0 in 0 W/m2
04:10 62.8 °F 61.3 °F 29.9 in Calm     95% 0 in 0 W/m2
04:15 62.6 °F 61.2 °F 29.9 in Calm     95% 0 in 0 W/m2
04:20 62.4 °F 61 °F 29.9 in Calm     95% 0 in 0 W/m2
04:25 62.4 °F 61 °F 29.9 in Calm     95% 0 in 0 W/m2
04:30 62.2 °F 60.8 °F 29.9 in Calm     95% 0 in 0 W/m2
04:35 62.2 °F 60.8 °F 29.9 in Calm     95% 0 in 0 W/m2
04:40 62.1 °F 60.6 °F 29.9 in Calm     95% 0 in 0 W/m2
04:45 62.1 °F 60.6 °F 29.9 in Calm     95% 0 in 0 W/m2
04:50 61.9 °F 60.4 °F 29.9 in Calm     95% 0 in 0 W/m2
04:55 61.7 °F 60.3 °F 29.9 in Calm     95% 0 in 0 W/m2
05:01 61.5 °F 60.1 °F 29.9 in Calm     95% 0 in 0 W/m2
05:06 61.5 °F 60.1 °F 29.9 in Calm     95% 0 in 0 W/m2
05:11 61.5 °F 60.1 °F 29.9 in Calm     95% 0 in 0 W/m2
05:16 61.5 °F 60.1 °F 29.9 in Calm     95% 0 in 0 W/m2
05:21 61.5 °F 60.1 °F 29.9 in Calm     95% 0 in 0 W/m2
05:26 61.5 °F 60.1 °F 29.9 in Calm     95% 0 in 0 W/m2
05:31 61.3 °F 59.9 °F 29.9 in Calm     95% 0 in 0 W/m2
05:36 61.3 °F 59.9 °F 29.9 in Calm     95% 0 in 0 W/m2
05:41 61.3 °F 60.3 °F 29.9 in Calm     96% 0 in 0 W/m2
05:46 61.3 °F 60.3 °F 29.9 in Calm     96% 0 in 0 W/m2
05:51 61.3 °F 60.3 °F 29.9 in Calm     96% 0 in 0 W/m2
05:56 61.3 °F 60.3 °F 29.9 in Calm     96% 0 in 0 W/m2
06:01 61.2 °F 60.1 °F 29.9 in Calm     96% 0 in 0 W/m2
06:06 61.2 °F 60.1 °F 29.9 in Calm     96% 0 in 0 W/m2
06:11 61.2 °F 60.1 °F 29.9 in Calm     96% 0 in 0 W/m2
06:16 61 °F 59.9 °F 29.9 in Calm     96% 0 in 0 W/m2
06:21 61 °F 59.9 °F 29.9 in Calm     96% 0 in 0 W/m2
06:26 61 °F 59.9 °F 29.9 in Calm     96% 0 in 0 W/m2
06:31 60.8 °F 59.7 °F 29.9 in Calm     96% 0 in 0 W/m2
06:36 60.8 °F 59.7 °F 29.9 in Calm     96% 0 in 0 W/m2
06:41 61 °F 59.9 °F 29.9 in Calm     96% 0 in 0 W/m2
06:46 61 °F 59.9 °F 29.9 in Calm     96% 0 in 0 W/m2
06:51 60.8 °F 59.7 °F 29.9 in Calm     96% 0 in 0 W/m2
06:56 60.8 °F 59.7 °F 29.9 in Calm     96% 0 in 0 W/m2
07:01 61 °F 59.9 °F 29.9 in Calm     96% 0 in 0 W/m2
07:06 61.2 °F 60.1 °F 29.9 in Calm     96% 0 in 0 W/m2
07:11 61.2 °F 60.1 °F 29.9 in Calm     96% 0 in 0 W/m2
07:16 61.2 °F 60.1 °F 29.9 in Calm     96% 0 in 0 W/m2
07:21 61.2 °F 60.1 °F 29.9 in Calm     96% 0 in 0 W/m2
07:26 61.3 °F 60.3 °F 29.9 in Calm     96% 0 in 7 W/m2
07:31 61.3 °F 60.3 °F 29.9 in Calm     96% 0 in 11 W/m2
07:36 61.3 °F 60.3 °F 29.9 in Calm     96% 0 in 16 W/m2
07:41 61.5 °F 60.4 °F 29.9 in Calm     96% 0 in 18 W/m2
07:46 61.5 °F 60.4 °F 29.9 in Calm     96% 0 in 19 W/m2
07:51 61.5 °F 60.4 °F 29.9 in Calm     96% 0 in 21 W/m2
07:56 61.7 °F 60.6 °F 29.9 in Calm     96% 0 in 19 W/m2
08:01 61.9 °F 60.8 °F 29.9 in Calm     96% 0 in 23 W/m2
08:06 61.9 °F 61 °F 29.9 in Calm     97% 0 in 25 W/m2
08:11 61.9 °F 61 °F 29.9 in Calm     97% 0 in 19 W/m2
08:16 61.9 °F 61 °F 29.9 in Calm     97% 0 in 23 W/m2
08:21 62.1 °F 61.2 °F 29.9 in Calm     97% 0 in 23 W/m2
08:26 62.1 °F 61.2 °F 29.9 in Calm     97% 0 in 28 W/m2
08:31 62.2 °F 61.3 °F 29.9 in Calm     97% 0 in 33 W/m2
08:36 62.2 °F 61.3 °F 29.9 in Calm     97% 0 in 46 W/m2
08:41 62.2 °F 61.3 °F 29.9 in Calm     97% 0 in 67 W/m2
08:47 62.4 °F 61.5 °F 29.9 in Calm     97% 0 in 81 W/m2
08:52 62.4 °F 61.5 °F 29.9 in Calm     97% 0 in 67 W/m2
08:57 62.4 °F 61.5 °F 29.9 in Calm     97% 0 in 56 W/m2
09:02 62.6 °F 61.7 °F 29.9 in Calm     97% 0 in 49 W/m2
09:07 62.8 °F 61.9 °F 29.9 in Calm     97% 0 in 39 W/m2
09:12 62.8 °F 61.9 °F 29.9 in Calm     97% 0 in 56 W/m2
09:17 63 °F 62.1 °F 29.9 in East 2 mph 2 mph 97% 0 in 72 W/m2
09:22 63.1 °F 62.1 °F 29.9 in Calm   1 mph 96% 0 in 83 W/m2
09:27 63.1 °F 62.1 °F 29.9 in Calm     96% 0 in 107 W/m2
09:32 63.3 °F 62.2 °F 29.9 in Calm   1 mph 96% 0 in 132 W/m2
09:37 63.7 °F 62.6 °F 29.9 in NNW 0.9 mph 1 mph 96% 0 in 132 W/m2
09:42 64.2 °F 62.8 °F 29.9 in Calm   2 mph 95% 0 in 95 W/m2
09:47 64.6 °F 62.8 °F 29.9 in SW 0.9 mph 2 mph 94% 0 in 98 W/m2
09:52 64.9 °F 62.8 °F 29.9 in Calm     93% 0 in 77 W/m2
09:57 65.1 °F 63 °F 29.9 in East 2.9 mph 3 mph 93% 0 in 104 W/m2
10:02 65.5 °F 62.8 °F 29.9 in East 2 mph 2 mph 91% 0 in 90 W/m2
10:07 65.7 °F 63 °F 29.9 in NNE 2 mph 3 mph 91% 0 in 81 W/m2
10:12 65.7 °F 62.6 °F 29.9 in Calm     90% 0 in 97 W/m2
10:17 65.8 °F 62.4 °F 29.9 in Calm   2 mph 89% 0 in 123 W/m2
10:22 66 °F 63 °F 29.9 in ESE 2 mph 2 mph 90% 0 in 125 W/m2
10:27 66 °F 62.6 °F 29.9 in Calm   3 mph 89% 0 in 171 W/m2
10:32 66.4 °F 63 °F 29.9 in NE 0.9 mph 2 mph 89% 0 in 225 W/m2
10:37 66.6 °F 63 °F 29.9 in Calm   2 mph 88% 0 in 163 W/m2
10:42 66.7 °F 63.1 °F 29.9 in Calm     88% 0 in 146 W/m2
10:47 66.9 °F 63 °F 29.9 in Calm   3 mph 87% 0 in 183 W/m2
10:52 67.1 °F 63.1 °F 29.9 in Calm   1 mph 87% 0 in 183 W/m2
10:57 67.3 °F 63.3 °F 29.9 in ENE 2 mph 2 mph 87% 0 in 190 W/m2
11:02 67.5 °F 63.5 °F 29.9 in North 2 mph 2 mph 87% 0 in 220 W/m2
11:07 67.8 °F 63.5 °F 29.9 in ENE 0.9 mph 2 mph 86% 0 in 214 W/m2
11:12 68 °F 63.7 °F 29.9 in NNW 2 mph 5 mph 86% 0 in 186 W/m2
11:17 67.8 °F 63.5 °F 29.9 in Calm   4 mph 86% 0 in 137 W/m2
11:22 67.8 °F 63.5 °F 29.9 in Calm   1 mph 86% 0 in 125 W/m2
11:27 67.8 °F 63.5 °F 29.9 in Calm     86% 0 in 172 W/m2
11:32 68.2 °F 63.9 °F 29.9 in WNW 0.9 mph 2 mph 86% 0 in 160 W/m2
11:37 68.2 °F 63.5 °F 29.9 in Calm   2 mph 85% 0 in 105 W/m2
11:42 68.2 °F 63.5 °F 29.9 in Calm   4 mph 85% 0 in 86 W/m2
11:47 68.2 °F 63.9 °F 29.9 in Calm   1 mph 86% 0 in 102 W/m2
11:52 68.4 °F 64 °F 30 in NE 0.9 mph 4 mph 86% 0 in 100 W/m2
11:57 68.4 °F 63.7 °F 30 in NW 0.9 mph 6 mph 85% 0 in 123 W/m2
12:02 68.4 °F 64 °F 29.9 in Calm   1 mph 86% 0 in 120 W/m2
12:07 68.4 °F 63.7 °F 29.9 in Calm   2 mph 85% 0 in 142 W/m2
12:12 68.4 °F 64 °F 29.9 in WNW 0.9 mph 2 mph 86% 0 in 200 W/m2
12:17 68.4 °F 64 °F 29.9 in Calm   1 mph 86% 0 in 244 W/m2
12:22 68.5 °F 64.2 °F 30 in West 2 mph 2 mph 86% 0 in 287 W/m2
12:27 68.5 °F 64.2 °F 30 in NNE 2 mph 3 mph 86% 0 in 265 W/m2
12:32 68.7 °F 64 °F 29.9 in NNE 0.9 mph 2 mph 85% 0 in 244 W/m2
12:37 68.9 °F 64.2 °F 29.9 in WNW 0.9 mph 4 mph 85% 0 in 211 W/m2
12:42 69.1 °F 64.4 °F 29.9 in Calm   3 mph 85% 0 in 193 W/m2
12:47 69.1 °F 64 °F 29.9 in West 2.9 mph 6 mph 84% 0 in 190 W/m2
12:52 69.1 °F 64.4 °F 29.9 in North 0.9 mph 2 mph 85% 0 in 237 W/m2
12:57 68.9 °F 63.9 °F 29.9 in WNW 0.9 mph 6 mph 84% 0 in 241 W/m2
13:02 69.1 °F 64.4 °F 29.9 in Calm   3 mph 85% 0 in 209 W/m2
13:07 69.1 °F 64.4 °F 29.9 in ENE 0.9 mph 4 mph 85% 0 in 218 W/m2
13:12 69.1 °F 64.4 °F 29.9 in Calm   2 mph 85% 0 in 350 W/m2
13:17 69.4 °F 64.8 °F 29.9 in SW 0.9 mph 3 mph 85% 0 in 381 W/m2
13:22 69.8 °F 64 °F 29.9 in West 0.9 mph 3 mph 82% 0 in 311 W/m2
13:27 70 °F 63.9 °F 29.9 in NNW 2.9 mph 4 mph 81% 0 in 255 W/m2
13:32 69.8 °F 64 °F 29.9 in WNW 2.9 mph 3 mph 82% 0 in 221 W/m2
13:37 69.6 °F 63.9 °F 29.9 in WNW 2.9 mph 3 mph 82% 0 in 262 W/m2
13:42 69.6 °F 63.9 °F 29.9 in NW 2 mph 8 mph 82% 0 in 269 W/m2
13:47 69.6 °F 63.9 °F 30 in West 2 mph 5 mph 82% 0 in 211 W/m2
13:52 69.6 °F 63.9 °F 29.9 in WNW 4.9 mph 8 mph 82% 0 in 359 W/m2
13:57 69.8 °F 64 °F 29.9 in NW 2.9 mph 3 mph 82% 0 in 392 W/m2
14:02 70.3 °F 64.6 °F 29.9 in SW 2 mph 7 mph 82% 0 in 255 W/m2
14:07 70.3 °F 64.2 °F 29.9 in ENE 0.9 mph 4 mph 81% 0 in 232 W/m2
14:12 70.2 °F 64 °F 29.9 in West 0.9 mph 6 mph 81% 0 in 195 W/m2
14:17 70.2 °F 64 °F 29.9 in ESE 2 mph 4 mph 81% 0 in 114 W/m2
14:22 70.2 °F 64.4 °F 29.9 in WSW 2 mph 2 mph 82% 0 in 74 W/m2
14:27 69.8 °F 64 °F 29.9 in WNW 0.9 mph 4 mph 82% 0 in 49 W/m2
14:32 69.3 °F 63.9 °F 29.9 in West 0.9 mph 2 mph 83% 0 in 56 W/m2
14:37 69.1 °F 64.4 °F 29.9 in West 0.9 mph 2 mph 85% 0.01 in 65 W/m2
14:42 68.5 °F 64.2 °F 29.9 in NW 4 mph 7 mph 86% 0.03 in 62 W/m2
14:47 67.5 °F 63.5 °F 29.9 in WNW 2.9 mph 8 mph 87% 0.14 in 118 W/m2
14:52 66.6 °F 63.1 °F 29.9 in WNW 2.9 mph 4 mph 89% 0.17 in 206 W/m2
14:57 66.2 °F 63.5 °F 29.9 in WNW 2 mph 6 mph 91% 0.18 in 229 W/m2
15:02 66.2 °F 63.9 °F 29.9 in NW 2 mph 3 mph 92% 0.18 in 202 W/m2
15:07 66.4 °F 64 °F 29.9 in West 0.9 mph 4 mph 92% 0.18 in 204 W/m2
15:12 66.4 °F 64.2 °F 29.9 in ENE 0.9 mph 2 mph 93% 0.18 in 206 W/m2
15:17 66.6 °F 64.4 °F 29.9 in NW 0.9 mph 2 mph 93% 0.19 in 214 W/m2
15:22 66.7 °F 64.6 °F 29.9 in WNW 2 mph 2 mph 93% 0.19 in 246 W/m2
15:27 66.9 °F 64.8 °F 29.9 in WNW 4 mph 4 mph 93% 0.19 in 325 W/m2
15:32 66.9 °F 64.8 °F 29.9 in WNW 2 mph 5 mph 93% 0.19 in 269 W/m2
15:37 67.1 °F 64.9 °F 29.9 in Calm   3 mph 93% 0.18 in 211 W/m2
15:42 67.3 °F 65.1 °F 29.9 in WNW 2 mph 5 mph 93% 0.16 in 171 W/m2
15:47 67.3 °F 65.1 °F 29.9 in West 2.9 mph 3 mph 93% 0.04 in 169 W/m2
15:52 67.3 °F 64.9 °F 29.9 in Calm   4 mph 92% 0.02 in 172 W/m2
15:57 67.3 °F 64.9 °F 29.9 in Calm   4 mph 92% 0.01 in 165 W/m2
16:02 67.5 °F 65.1 °F 29.9 in Calm     92% 0.01 in 165 W/m2
16:07 67.5 °F 65.1 °F 29.9 in WNW 2 mph 4 mph 92% 0.01 in 211 W/m2
16:12 67.5 °F 65.1 °F 29.9 in West 0.9 mph 2 mph 92% 0.01 in 271 W/m2
16:17 67.5 °F 65.1 °F 29.9 in Calm   2 mph 92% 0 in 267 W/m2
16:22 67.6 °F 65.3 °F 29.9 in Calm   3 mph 92% 0 in 220 W/m2
16:27 67.6 °F 64.9 °F 29.9 in NW 2 mph 3 mph 91% 0 in 171 W/m2
16:32 67.6 °F 64.9 °F 29.9 in NNW 0.9 mph 3 mph 91% 0 in 176 W/m2
16:37 67.6 °F 64.9 °F 29.9 in NW 0.9 mph 6 mph 91% 0 in 206 W/m2
16:42 67.6 °F 64.9 °F 29.9 in Calm   2 mph 91% 0 in 381 W/m2
16:47 68.2 °F 65.5 °F 29.9 in Calm   3 mph 91% 0 in 522 W/m2
16:52 68.4 °F 65.3 °F 29.9 in Calm   2 mph 90% 0 in 169 W/m2
16:57 68.4 °F 65.3 °F 29.9 in WNW 2 mph 4 mph 90% 0 in 158 W/m2
17:02 68.2 °F 64.8 °F 29.9 in Calm   2 mph 89% 0 in 181 W/m2
17:07 68.4 °F 65.3 °F 29.9 in NW 0.9 mph 1 mph 90% 0 in 225 W/m2
17:12 68.4 °F 64.9 °F 29.9 in West 0.9 mph 2 mph 89% 0 in 272 W/m2
17:17 68.5 °F 65.1 °F 29.9 in WNW 2.9 mph 3 mph 89% 0 in 504 W/m2
17:22 68.7 °F 64.9 °F 29.9 in West 2.9 mph 3 mph 88% 0 in 367 W/m2
17:27 68.7 °F 64.8 °F 29.9 in NNW 0.9 mph 3 mph 87% 0 in 394 W/m2
17:32 69.1 °F 65.1 °F 29.9 in SSE 0.9 mph 4 mph 87% 0 in 352 W/m2
17:38 69.3 °F 64.9 °F 29.9 in SSW 0.9 mph 1 mph 86% 0 in 343 W/m2
17:43 69.6 °F 65.7 °F 29.9 in Calm   1 mph 87% 0 in 262 W/m2
17:48 70.2 °F 66 °F 29.9 in North 0.9 mph 1 mph 87% 0 in 294 W/m2
17:53 70.2 °F 65.8 °F 29.9 in Calm     86% 0 in 294 W/m2
17:58 70.3 °F 65.7 °F 29.9 in Calm   1 mph 85% 0 in 255 W/m2
18:03 70.3 °F 65.7 °F 29.9 in Calm   1 mph 85% 0 in 204 W/m2
18:08 70.2 °F 65.1 °F 29.9 in Calm   2 mph 84% 0 in 77 W/m2
18:13 70 °F 65.3 °F 29.9 in SSE 0.9 mph 3 mph 85% 0 in 69 W/m2
18:18 69.6 °F 65.3 °F 29.9 in Calm   1 mph 86% 0 in 121 W/m2
18:23 69.3 °F 64.9 °F 29.9 in Calm   4 mph 86% 0 in 76 W/m2
18:28 69.1 °F 65.1 °F 29.9 in Calm   1 mph 87% 0 in 67 W/m2
18:33 68.9 °F 64.9 °F 29.9 in Calm   2 mph 87% 0 in 65 W/m2
18:38 68.5 °F 64.8 °F 29.9 in Calm   1 mph 88% 0 in 58 W/m2
18:43 68.5 °F 65.1 °F 29.9 in Calm     89% 0 in 49 W/m2
18:48 68.4 °F 64.9 °F 29.9 in Calm     89% 0 in 42 W/m2
18:53 68 °F 64.9 °F 29.9 in Calm   1 mph 90% 0 in 33 W/m2
18:58 67.8 °F 64.8 °F 29.9 in Calm     90% 0 in 26 W/m2
19:03 67.6 °F 64.9 °F 29.9 in Calm   1 mph 91% 0 in 23 W/m2
19:08 67.5 °F 64.8 °F 29.9 in East 0.9 mph 1 mph 91% 0 in 25 W/m2
19:13 67.3 °F 64.9 °F 29.9 in Calm     92% 0 in 25 W/m2
19:18 67.1 °F 64.8 °F 29.9 in Calm     92% 0 in 21 W/m2
19:23 66.7 °F 64.4 °F 29.9 in Calm   1 mph 92% 0 in 21 W/m2
19:28 66.6 °F 64.2 °F 29.9 in Calm   1 mph 92% 0 in 23 W/m2
19:33 66.4 °F 64.2 °F 29.9 in Calm     93% 0 in 21 W/m2
19:38 66.2 °F 64 °F 29.9 in Calm   2 mph 93% 0 in 19 W/m2
19:43 66 °F 63.9 °F 29.9 in East 0.9 mph 2 mph 93% 0 in 12 W/m2
19:48 65.8 °F 63.7 °F 29.9 in Calm     93% 0 in 9 W/m2
19:53 65.8 °F 63.7 °F 29.9 in Calm     93% 0 in 5 W/m2
19:58 65.7 °F 63.5 °F 30 in Calm   1 mph 93% 0 in 0 W/m2
20:03 65.5 °F 63.7 °F 30 in Calm   2 mph 94% 0 in 0 W/m2
20:08 65.5 °F 63.7 °F 30 in Calm   2 mph 94% 0 in 0 W/m2
20:13 65.5 °F 63.7 °F 30 in Calm   1 mph 94% 0 in 0 W/m2
20:18 65.1 °F 63.3 °F 30 in Calm   1 mph 94% 0 in 0 W/m2
20:23 65.1 °F 63.3 °F 30 in SSE 0.9 mph 1 mph 94% 0 in 0 W/m2
20:28 64.9 °F 63.1 °F 30 in Calm   2 mph 94% 0 in 0 W/m2
20:33 64.9 °F 63.1 °F 30 in Calm     94% 0 in 0 W/m2
20:38 64.8 °F 63 °F 30 in Calm   1 mph 94% 0 in 0 W/m2
20:43 64.8 °F 63 °F 30 in Calm   4 mph 94% 0 in 0 W/m2
20:48 64.8 °F 63 °F 30 in Calm     94% 0 in 0 W/m2
20:53 64.6 °F 62.8 °F 30 in Calm   3 mph 94% 0 in 0 W/m2
20:58 64.6 °F 62.8 °F 30 in NNE 0.9 mph 1 mph 94% 0 in 0 W/m2
21:03 64.8 °F 63 °F 30 in Calm   1 mph 94% 0 in 0 W/m2
21:08 64.8 °F 63 °F 30 in Calm   1 mph 94% 0 in 0 W/m2
21:13 64.9 °F 63.1 °F 30 in Calm   2 mph 94% 0 in 0 W/m2
21:18 64.9 °F 62.8 °F 30 in NW 0.9 mph 3 mph 93% 0 in 0 W/m2
21:23 64.9 °F 62.8 °F 30 in North 2 mph 2 mph 93% 0 in 0 W/m2
21:28 65.1 °F 63 °F 30 in Calm   2 mph 93% 0 in 0 W/m2
21:33 65.1 °F 63 °F 30 in Calm     93% 0 in 0 W/m2
21:38 64.9 °F 62.8 °F 30 in Calm     93% 0 in 0 W/m2
21:43 64.9 °F 62.8 °F 30 in Calm   3 mph 93% 0 in 0 W/m2
21:48 64.8 °F 62.6 °F 30 in Calm   3 mph 93% 0 in 0 W/m2
21:53 64.6 °F 62.4 °F 30 in Calm     93% 0 in 0 W/m2
21:58 64.6 °F 62.4 °F 30 in West 0.9 mph 2 mph 93% 0 in 0 W/m2
22:03 64.4 °F 62.4 °F 30 in Calm   1 mph 93% 0 in 0 W/m2
22:08 64.4 °F 62.4 °F 30 in Calm     93% 0 in 0 W/m2
22:13 64.2 °F 62.2 °F 30 in Calm     93% 0 in 0 W/m2
22:18 64.2 °F 62.4 °F 30 in NW 0.9 mph 1 mph 94% 0 in 0 W/m2
22:23 64.2 °F 62.4 °F 30 in NW 2.9 mph 4 mph 94% 0 in 0 W/m2
22:28 64.2 °F 62.4 °F 30 in Calm   1 mph 94% 0 in 0 W/m2
22:33 64.2 °F 62.4 °F 30 in East 4 mph 4 mph 94% 0 in 0 W/m2
22:38 64 °F 62.2 °F 30 in Calm   2 mph 94% 0 in 0 W/m2
22:43 64 °F 62.2 °F 30 in East 2 mph 2 mph 94% 0 in 0 W/m2
22:48 64 °F 62.2 °F 30 in NE 0.9 mph 4 mph 94% 0 in 0 W/m2
22:53 64 °F 62.2 °F 30 in Calm   2 mph 94% 0 in 0 W/m2
22:58 64 °F 62.2 °F 30 in Calm   4 mph 94% 0 in 0 W/m2
23:03 64 °F 62.2 °F 30 in Calm   1 mph 94% 0 in 0 W/m2
23:08 64 °F 62.2 °F 30 in Calm   2 mph 94% 0 in 0 W/m2
23:13 63.9 °F 62.1 °F 30 in Calm   1 mph 94% 0 in 0 W/m2
23:18 63.9 °F 62.1 °F 30 in Calm   2 mph 94% 0 in 0 W/m2
23:23 63.7 °F 61.9 °F 30 in Calm   1 mph 94% 0 in 0 W/m2
23:28 63.7 °F 61.9 °F 30 in Calm     94% 0 in 0 W/m2
23:33 63.5 °F 61.7 °F 30 in Calm   2 mph 94% 0 in 0 W/m2
23:38 63.3 °F 61.5 °F 30 in Calm     94% 0 in 0 W/m2
23:43 63.1 °F 61.3 °F 30 in Calm   2 mph 94% 0 in 0 W/m2
23:48 63 °F 61.2 °F 30 in Calm   1 mph 94% 0 in 0 W/m2
23:53 63 °F 61.2 °F 30 in Calm   1 mph 94% 0 in 0 W/m2
23:58 63 °F 61.5 °F 30 in Calm     95% 0 in 0 W/m2
Juneau County Weather
Compliments of Weather Underground - 4 mb